createdAt,value
2019-05-20T00:01:30.164Z,12.73
2019-05-20T00:04:00.699Z,11.63
2019-05-20T00:06:28.415Z,11.93
2019-05-20T00:09:04.477Z,12.60
2019-05-20T00:11:31.181Z,12.10
2019-05-20T00:13:57.506Z,12.97
2019-05-20T00:16:30.227Z,11.83
2019-05-20T00:18:56.585Z,13.23
2019-05-20T00:21:23.299Z,12.33
2019-05-20T00:23:49.863Z,11.17
2019-05-20T00:26:17.122Z,11.43
2019-05-20T00:28:43.374Z,11.40
2019-05-20T00:31:09.962Z,11.60
2019-05-20T00:33:36.342Z,11.73
2019-05-20T00:36:02.876Z,11.20
2019-05-20T00:38:30.523Z,12.53
2019-05-20T00:40:57.168Z,11.90
2019-05-20T00:43:32.388Z,11.17
2019-05-20T00:45:59.797Z,10.23
2019-05-20T00:48:26.494Z,12.13
2019-05-20T00:50:53.963Z,9.00
2019-05-20T00:53:21.594Z,11.07
2019-05-20T00:55:59.242Z,9.93
2019-05-20T00:58:25.783Z,10.50
2019-05-20T01:00:52.376Z,11.67
2019-05-20T01:03:23.593Z,9.57
2019-05-20T01:05:49.843Z,10.17
2019-05-20T01:08:16.161Z,9.90
2019-05-20T01:10:42.825Z,10.13
2019-05-20T01:13:09.241Z,13.37
2019-05-20T01:15:35.471Z,11.37
2019-05-20T01:18:01.723Z,11.80
2019-05-20T01:20:28.081Z,12.03
2019-05-20T01:22:54.322Z,12.90
2019-05-20T01:25:20.589Z,12.60
2019-05-20T01:27:47.922Z,10.70
2019-05-20T01:30:15.691Z,12.70
2019-05-20T01:32:42.040Z,10.80
2019-05-20T01:35:10.973Z,11.63
2019-05-20T01:37:37.246Z,12.20
2019-05-20T01:40:03.723Z,10.70
2019-05-20T01:42:30.340Z,10.80
2019-05-20T01:44:56.688Z,10.00
2019-05-20T01:47:22.969Z,10.13
2019-05-20T01:49:49.342Z,10.83
2019-05-20T01:52:17.132Z,10.73
2019-05-20T01:54:43.871Z,11.27
2019-05-20T01:57:10.617Z,11.60
2019-05-20T01:59:37.154Z,10.33
2019-05-20T02:02:05.747Z,9.63
2019-05-20T02:04:32.014Z,9.10
2019-05-20T02:06:58.370Z,9.17
2019-05-20T02:09:24.817Z,8.33
2019-05-20T02:11:51.209Z,8.37
2019-05-20T02:14:19.866Z,8.40
2019-05-20T02:16:46.396Z,7.43
2019-05-20T02:19:13.830Z,7.67
2019-05-20T02:21:40.180Z,7.83
2019-05-20T02:24:07.949Z,7.50
2019-05-20T02:26:34.638Z,8.23
2019-05-20T02:29:02.127Z,6.73
2019-05-20T02:31:28.904Z,6.60
2019-05-20T02:33:55.361Z,6.90
2019-05-20T02:36:22.283Z,6.27
2019-05-20T02:38:49.044Z,6.40
2019-05-20T02:41:22.569Z,6.70
2019-05-20T02:43:51.996Z,5.60
2019-05-20T02:46:18.546Z,5.87
2019-05-20T02:48:45.189Z,5.23
2019-05-20T02:51:11.560Z,6.53
2019-05-20T02:53:39.955Z,6.27
2019-05-20T02:56:10.204Z,6.03
2019-05-20T02:58:36.544Z,5.50
2019-05-20T03:01:03.238Z,5.23
2019-05-20T03:03:29.862Z,5.23
2019-05-20T03:06:09.343Z,4.30
2019-05-20T03:08:35.701Z,4.10
2019-05-20T03:11:02.306Z,3.90
2019-05-20T03:13:29.686Z,3.83
2019-05-20T03:15:56.100Z,3.63
2019-05-20T03:18:22.791Z,4.70
2019-05-20T03:20:57.173Z,5.00
2019-05-20T03:23:27.235Z,5.57
2019-05-20T03:25:53.577Z,5.70
2019-05-20T03:28:20.980Z,5.30
2019-05-20T03:30:47.395Z,4.97
2019-05-20T03:33:18.094Z,4.73
2019-05-20T03:35:44.534Z,4.30
2019-05-20T03:38:12.028Z,3.63
2019-05-20T03:40:39.673Z,3.60
2019-05-20T03:43:12.218Z,3.23
2019-05-20T03:45:38.574Z,3.23
2019-05-20T03:48:05.126Z,3.73
2019-05-20T03:50:31.475Z,3.73
2019-05-20T03:52:58.134Z,3.50
2019-05-20T03:55:25.622Z,3.30
2019-05-20T03:57:52.402Z,2.93
2019-05-20T04:00:44.554Z,3.33
2019-05-20T04:03:13.768Z,2.90
2019-05-20T04:05:42.246Z,2.90
2019-05-20T04:08:08.638Z,3.07
2019-05-20T04:10:35.350Z,2.97
2019-05-20T04:13:03.456Z,3.10
2019-05-20T04:15:30.178Z,2.80
2019-05-20T04:17:58.071Z,2.50
2019-05-20T04:20:25.768Z,2.90
2019-05-20T04:22:52.525Z,2.77
2019-05-20T04:25:20.995Z,2.67
2019-05-20T04:27:49.381Z,2.83
2019-05-20T04:30:26.565Z,3.07
2019-05-20T04:32:54.030Z,2.93
2019-05-20T04:35:23.144Z,3.23
2019-05-20T04:37:49.949Z,3.27
2019-05-20T04:40:16.795Z,4.07
2019-05-20T04:42:43.175Z,4.30
2019-05-20T04:45:11.362Z,3.80
2019-05-20T04:47:38.099Z,5.57
2019-05-20T04:50:08.081Z,6.07
2019-05-20T04:52:35.451Z,5.80
2019-05-20T04:55:02.405Z,6.27
2019-05-20T04:57:34.088Z,5.10
2019-05-20T05:00:05.724Z,6.60
2019-05-20T05:02:32.213Z,7.50
2019-05-20T05:04:58.771Z,7.07
2019-05-20T05:07:25.299Z,7.80
2019-05-20T05:09:52.105Z,8.93
2019-05-20T05:12:20.646Z,7.23
2019-05-20T05:14:47.972Z,8.30
2019-05-20T05:17:17.976Z,8.40
2019-05-20T05:19:50.318Z,9.10
2019-05-20T05:22:21.048Z,7.93
2019-05-20T05:24:47.531Z,9.70
2019-05-20T05:27:13.901Z,10.17
2019-05-20T05:29:40.427Z,10.70
2019-05-20T05:32:10.088Z,11.00
2019-05-20T05:34:39.637Z,11.20
2019-05-20T05:37:10.147Z,9.90
2019-05-20T05:39:36.434Z,12.17
2019-05-20T05:42:03.025Z,13.63
2019-05-20T05:44:29.365Z,11.43
2019-05-20T05:46:55.836Z,13.43
2019-05-20T05:49:22.634Z,14.40
2019-05-20T05:51:49.639Z,15.77
2019-05-20T05:54:17.381Z,14.47
2019-05-20T05:56:43.824Z,14.93
2019-05-20T05:59:10.207Z,13.50
2019-05-20T06:01:36.588Z,14.07
2019-05-20T06:04:03.194Z,14.50
2019-05-20T06:06:29.547Z,15.47
2019-05-20T06:08:57.428Z,16.53
2019-05-20T06:11:23.820Z,15.87
2019-05-20T06:13:50.214Z,15.40
2019-05-20T06:16:35.844Z,16.07
2019-05-20T06:18:50.357Z,17.13
2019-05-20T06:21:17.073Z,16.33
2019-05-20T06:23:43.575Z,17.57
2019-05-20T06:26:10.085Z,14.47
2019-05-20T06:28:36.570Z,18.83
2019-05-20T06:31:03.038Z,19.10
2019-05-20T06:33:29.672Z,15.23
2019-05-20T06:36:01.675Z,17.47
2019-05-20T06:38:36.508Z,17.97
2019-05-20T06:41:04.666Z,17.47
2019-05-20T06:43:31.052Z,17.57
2019-05-20T06:45:57.456Z,18.17
2019-05-20T06:48:27.898Z,14.60
2019-05-20T06:51:02.165Z,17.13
2019-05-20T06:53:30.813Z,18.83
2019-05-20T06:55:57.238Z,16.73
2019-05-20T06:58:25.026Z,18.03
2019-05-20T07:00:51.427Z,17.63
2019-05-20T07:03:18.930Z,18.37
2019-05-20T07:05:45.408Z,16.53
2019-05-20T07:08:13.810Z,13.33
2019-05-20T07:10:44.160Z,17.13
2019-05-20T07:13:11.615Z,16.90
2019-05-20T07:15:41.487Z,16.47
2019-05-20T07:18:09.206Z,17.00
2019-05-20T07:20:35.850Z,16.30
2019-05-20T07:23:08.528Z,17.47
2019-05-20T07:25:35.028Z,15.60
2019-05-20T07:28:02.961Z,16.80
2019-05-20T07:30:33.646Z,16.70
2019-05-20T07:33:00.326Z,17.27
2019-05-20T07:35:37.329Z,17.03
2019-05-20T07:38:03.654Z,16.93
2019-05-20T07:40:31.487Z,16.00
2019-05-20T07:42:58.292Z,16.73
2019-05-20T07:45:27.449Z,16.97
2019-05-20T07:47:54.269Z,14.17
2019-05-20T07:50:24.458Z,15.50
2019-05-20T07:52:51.184Z,15.57
2019-05-20T07:55:19.526Z,15.67
2019-05-20T07:57:49.918Z,14.73
2019-05-20T08:00:16.508Z,15.00
2019-05-20T08:02:45.018Z,13.90
2019-05-20T08:05:12.005Z,14.70
2019-05-20T08:07:51.308Z,16.13
2019-05-20T08:10:07.892Z,13.10
2019-05-20T08:12:34.446Z,13.87
2019-05-20T08:15:01.268Z,14.77
2019-05-20T08:17:27.976Z,16.33
2019-05-20T08:19:54.455Z,15.67
2019-05-20T08:22:29.881Z,14.70
2019-05-20T08:24:56.216Z,14.27
2019-05-20T08:27:25.089Z,12.93
2019-05-20T08:29:51.424Z,13.17
2019-05-20T08:32:18.104Z,14.20
2019-05-20T08:34:45.608Z,15.03
2019-05-20T08:37:12.262Z,12.97
2019-05-20T08:39:38.755Z,13.73
2019-05-20T08:42:06.295Z,13.90
2019-05-20T08:44:33.101Z,13.00
2019-05-20T08:46:59.501Z,14.83
2019-05-20T08:49:26.116Z,14.87
2019-05-20T08:51:58.714Z,14.93
2019-05-20T08:54:25.701Z,14.67
2019-05-20T08:56:52.314Z,13.97
2019-05-20T08:59:18.772Z,14.93
2019-05-20T09:01:45.102Z,13.53
2019-05-20T09:04:11.471Z,14.00
2019-05-20T09:06:37.950Z,13.87
2019-05-20T09:09:05.910Z,13.37
2019-05-20T09:11:34.542Z,12.93
2019-05-20T09:14:03.248Z,13.70
2019-05-20T09:16:29.897Z,12.90
2019-05-20T09:18:56.220Z,13.13
2019-05-20T09:21:22.663Z,12.73
2019-05-20T09:23:49.283Z,13.03
2019-05-20T09:26:16.212Z,11.20
2019-05-20T09:28:43.293Z,11.07
2019-05-20T09:31:09.642Z,9.87
2019-05-20T09:33:40.111Z,10.07
2019-05-20T09:36:09.487Z,9.63
2019-05-20T09:38:39.266Z,9.90
2019-05-20T09:41:07.727Z,8.93
2019-05-20T09:43:34.571Z,9.47
2019-05-20T09:46:08.069Z,8.97
2019-05-20T09:48:33.992Z,9.43
2019-05-20T09:51:09.519Z,9.80
2019-05-20T09:53:36.284Z,9.40
2019-05-20T09:56:06.264Z,9.73
2019-05-20T09:58:36.474Z,9.23
2019-05-20T10:01:03.064Z,10.00
2019-05-20T10:03:29.434Z,9.27
2019-05-20T10:05:55.856Z,9.47
2019-05-20T10:08:36.514Z,8.63
2019-05-20T10:10:51.689Z,9.03
2019-05-20T10:13:18.099Z,9.30
2019-05-20T10:15:47.638Z,9.30
2019-05-20T10:18:14.055Z,9.17
2019-05-20T10:20:40.691Z,8.07
2019-05-20T10:23:07.486Z,9.30
2019-05-20T10:25:34.255Z,8.47
2019-05-20T10:28:05.252Z,8.53
2019-05-20T10:30:31.897Z,7.97
2019-05-20T10:32:58.466Z,8.00
2019-05-20T10:35:25.130Z,8.60
2019-05-20T10:37:53.640Z,8.27
2019-05-20T10:40:20.264Z,8.60
2019-05-20T10:42:48.735Z,8.40
2019-05-20T10:45:15.813Z,8.33
2019-05-20T10:47:42.504Z,7.77
2019-05-20T10:50:14.344Z,7.87
2019-05-20T10:52:41.010Z,7.20
2019-05-20T10:55:09.984Z,8.03
2019-05-20T10:57:37.522Z,7.23
2019-05-20T11:00:06.280Z,9.57
2019-05-20T11:02:32.658Z,7.33
2019-05-20T11:04:59.073Z,8.23
2019-05-20T11:07:27.035Z,7.87
2019-05-20T11:09:55.523Z,6.97
2019-05-20T11:12:22.025Z,8.40
2019-05-20T11:14:48.523Z,8.70
2019-05-20T11:17:15.296Z,7.30
2019-05-20T11:19:46.120Z,8.63
2019-05-20T11:22:14.860Z,9.77
2019-05-20T11:24:41.231Z,8.73
2019-05-20T11:27:07.971Z,8.20
2019-05-20T11:29:34.460Z,8.13
2019-05-20T11:32:00.995Z,7.80
2019-05-20T11:34:28.584Z,9.13
2019-05-20T11:36:55.474Z,9.03
2019-05-20T11:39:32.481Z,8.43
2019-05-20T11:41:54.544Z,8.00
2019-05-20T11:44:19.081Z,7.90
2019-05-20T11:46:45.332Z,9.30
2019-05-20T11:49:11.890Z,8.93
2019-05-20T11:51:38.241Z,9.60
2019-05-20T11:54:04.634Z,9.80
2019-05-20T11:56:31.244Z,7.97
2019-05-20T11:58:58.284Z,9.10
2019-05-20T12:01:24.688Z,9.17
2019-05-20T12:03:51.033Z,9.30
2019-05-20T12:06:26.932Z,11.03
2019-05-20T12:08:55.742Z,10.33
2019-05-20T12:11:22.445Z,10.27
2019-05-20T12:13:52.897Z,10.37
2019-05-20T12:16:19.245Z,9.87
2019-05-20T12:18:46.049Z,11.00
2019-05-20T12:21:15.654Z,11.60
2019-05-20T12:23:42.037Z,13.60
2019-05-20T12:26:08.530Z,11.53
2019-05-20T12:28:34.917Z,11.17
2019-05-20T12:31:02.989Z,11.47
2019-05-20T12:33:35.928Z,10.37
2019-05-20T12:36:11.141Z,10.87
2019-05-20T12:38:41.144Z,11.53
2019-05-20T12:41:07.919Z,11.50
2019-05-20T12:43:34.368Z,11.57
2019-05-20T12:46:02.443Z,9.83
2019-05-20T12:48:29.862Z,12.43
2019-05-20T12:50:56.395Z,11.60
2019-05-20T12:53:26.646Z,11.40
2019-05-20T12:55:56.081Z,9.47
2019-05-20T12:58:22.611Z,10.50
2019-05-20T13:00:49.502Z,11.63
2019-05-20T13:03:22.421Z,11.30
2019-05-20T13:05:49.154Z,11.90
2019-05-20T13:08:17.673Z,11.37
2019-05-20T13:10:48.267Z,13.07
2019-05-20T13:13:15.291Z,12.50
2019-05-20T13:15:41.625Z,13.03
2019-05-20T13:18:10.208Z,12.80
2019-05-20T13:20:36.652Z,13.50
2019-05-20T13:23:05.364Z,13.30
2019-05-20T13:25:31.892Z,14.17
2019-05-20T13:27:58.150Z,14.07
2019-05-20T13:30:30.520Z,15.10
2019-05-20T13:33:01.564Z,15.43
2019-05-20T13:35:34.032Z,15.53
2019-05-20T13:38:01.656Z,14.40
2019-05-20T13:40:45.221Z,15.73
2019-05-20T13:42:59.644Z,16.17
2019-05-20T13:45:26.241Z,15.50
2019-05-20T13:47:53.651Z,15.43
2019-05-20T13:50:23.108Z,14.97
2019-05-20T13:52:49.709Z,15.17
2019-05-20T13:55:16.099Z,16.17
2019-05-20T13:57:42.700Z,15.77
2019-05-20T14:00:10.518Z,17.03
2019-05-20T14:02:37.972Z,16.67
2019-05-20T14:05:05.831Z,16.10
2019-05-20T14:07:38.016Z,17.20
2019-05-20T14:10:27.666Z,17.93
2019-05-20T14:12:56.410Z,18.52
2019-05-20T14:15:30.996Z,17.23
2019-05-20T14:18:01.442Z,19.17
2019-05-20T14:20:28.964Z,15.77
2019-05-20T14:22:55.333Z,18.97
2019-05-20T14:25:29.825Z,16.67
2019-05-20T14:27:56.500Z,18.40
2019-05-20T14:30:22.865Z,19.43
2019-05-20T14:32:49.340Z,15.97
2019-05-20T14:35:16.156Z,19.00
2019-05-20T14:37:43.191Z,18.97
2019-05-20T14:40:13.100Z,17.17
2019-05-20T14:42:40.514Z,17.83
2019-05-20T14:45:10.256Z,17.67
2019-05-20T14:47:38.871Z,17.93
2019-05-20T14:50:07.132Z,19.63
2019-05-20T14:52:33.639Z,18.00
2019-05-20T14:55:00.132Z,17.80
2019-05-20T14:57:28.560Z,18.03
2019-05-20T14:59:55.383Z,18.23
2019-05-20T15:02:21.963Z,18.23
2019-05-20T15:04:58.493Z,16.73
2019-05-20T15:07:31.573Z,17.80
2019-05-20T15:09:58.281Z,18.30
2019-05-20T15:12:24.863Z,16.47
2019-05-20T15:14:51.545Z,18.50
2019-05-20T15:17:17.926Z,17.63
2019-05-20T15:19:45.313Z,19.40
2019-05-20T15:22:16.967Z,19.67
2019-05-20T15:24:45.441Z,19.67
2019-05-20T15:27:15.976Z,20.33
2019-05-20T15:29:49.657Z,20.83
2019-05-20T15:32:16.482Z,21.30
2019-05-20T15:34:43.854Z,21.27
2019-05-20T15:37:11.386Z,21.83
2019-05-20T15:39:41.105Z,21.73
2019-05-20T15:42:11.018Z,20.97
2019-05-20T15:44:39.501Z,22.63
2019-05-20T15:47:07.900Z,21.30
2019-05-20T15:49:34.488Z,22.77
2019-05-20T15:52:01.116Z,19.80
2019-05-20T15:54:28.830Z,23.47
2019-05-20T15:56:55.279Z,22.50
2019-05-20T15:59:21.754Z,20.80
2019-05-20T16:01:48.367Z,22.30
2019-05-20T16:04:15.874Z,23.77
2019-05-20T16:06:48.989Z,21.10
2019-05-20T16:09:17.157Z,21.63
2019-05-20T16:11:51.276Z,22.17
2019-05-20T16:14:17.919Z,23.47
2019-05-20T16:16:48.763Z,22.20
2019-05-20T16:19:25.623Z,21.17
2019-05-20T16:21:56.974Z,20.30
2019-05-20T16:24:29.881Z,21.97
2019-05-20T16:27:01.303Z,21.73
2019-05-20T16:29:35.959Z,22.87
2019-05-20T16:32:04.505Z,22.63
2019-05-20T16:34:31.091Z,21.40
2019-05-20T16:36:58.588Z,25.40
2019-05-20T16:39:26.017Z,21.83
2019-05-20T16:41:52.483Z,23.17
2019-05-20T16:44:18.915Z,23.53
2019-05-20T16:46:49.007Z,21.20
2019-05-20T16:49:15.366Z,23.40
2019-05-20T16:51:44.084Z,22.93
2019-05-20T16:54:10.576Z,22.73
2019-05-20T16:56:37.938Z,22.67
2019-05-20T16:59:10.982Z,21.17
2019-05-20T17:01:45.946Z,21.30
2019-05-20T17:04:12.873Z,21.43
2019-05-20T17:06:39.687Z,20.07
2019-05-20T17:09:06.558Z,18.30
2019-05-20T17:11:34.056Z,16.60
2019-05-20T17:14:04.646Z,16.17
2019-05-20T17:16:31.039Z,15.13
2019-05-20T17:19:01.182Z,15.50
2019-05-20T17:21:28.809Z,16.03
2019-05-20T17:23:55.216Z,14.40
2019-05-20T17:26:25.914Z,14.47
2019-05-20T17:28:57.704Z,13.17
2019-05-20T17:31:30.930Z,14.97
2019-05-20T17:34:01.133Z,14.27
2019-05-20T17:36:28.796Z,13.70
2019-05-20T17:38:55.507Z,15.33
2019-05-20T17:41:22.331Z,15.60
2019-05-20T17:43:49.802Z,16.30
2019-05-20T17:46:17.245Z,17.10
2019-05-20T17:48:44.017Z,15.57
2019-05-20T17:51:11.553Z,15.20
2019-05-20T17:53:37.908Z,17.20
2019-05-20T17:56:04.305Z,16.07
2019-05-20T17:58:30.712Z,15.10
2019-05-20T18:01:13.992Z,17.33
2019-05-20T18:03:27.469Z,15.53
2019-05-20T18:05:54.157Z,15.30
2019-05-20T18:08:26.027Z,17.23
2019-05-20T18:10:56.121Z,19.27
2019-05-20T18:13:22.502Z,18.27
2019-05-20T18:15:54.015Z,17.53
2019-05-20T18:18:26.205Z,18.03
2019-05-20T18:20:56.269Z,17.90
2019-05-20T18:23:21.189Z,19.13
2019-05-20T18:25:48.647Z,20.37
2019-05-20T18:28:18.054Z,19.27
2019-05-20T18:30:45.688Z,20.00
2019-05-20T18:33:12.571Z,18.73
2019-05-20T18:35:39.011Z,20.83
2019-05-20T18:38:17.478Z,19.97
2019-05-20T18:40:45.066Z,20.33
2019-05-20T18:43:11.651Z,21.03
2019-05-20T18:45:39.485Z,21.83
2019-05-20T18:48:06.157Z,20.77
2019-05-20T18:50:32.607Z,19.57
2019-05-20T18:53:09.124Z,20.53
2019-05-20T18:55:41.040Z,19.97
2019-05-20T18:58:07.504Z,19.13
2019-05-20T19:00:33.984Z,19.73
2019-05-20T19:03:01.733Z,20.97
2019-05-20T19:05:30.225Z,20.50
2019-05-20T19:07:56.866Z,20.50
2019-05-20T19:10:24.668Z,20.63
2019-05-20T19:12:51.095Z,20.90
2019-05-20T19:15:17.882Z,20.87
2019-05-20T19:17:50.374Z,20.03
2019-05-20T19:20:16.870Z,19.83
2019-05-20T19:22:43.427Z,21.37
2019-05-20T19:25:10.524Z,20.30
2019-05-20T19:27:38.023Z,21.10
2019-05-20T19:30:11.524Z,18.53
2019-05-20T19:32:38.099Z,21.23
2019-05-20T19:35:07.534Z,20.40
2019-05-20T19:37:39.165Z,20.53
2019-05-20T19:40:10.004Z,20.63
2019-05-20T19:42:38.323Z,20.03
2019-05-20T19:45:05.563Z,20.30
2019-05-20T19:47:33.500Z,21.93
2019-05-20T19:50:05.275Z,22.57
2019-05-20T19:52:32.968Z,23.87
2019-05-20T19:55:00.431Z,22.77
2019-05-20T19:57:31.877Z,21.90
2019-05-20T19:59:58.612Z,21.27
2019-05-20T20:02:25.987Z,22.57
2019-05-20T20:04:55.695Z,22.13
2019-05-20T20:07:23.510Z,20.27
2019-05-20T20:09:50.446Z,20.20
2019-05-20T20:12:25.824Z,19.00
2019-05-20T20:14:52.096Z,19.10
2019-05-20T20:17:35.521Z,17.13
2019-05-20T20:20:05.163Z,17.13
2019-05-20T20:22:31.596Z,16.27
2019-05-20T20:24:57.948Z,14.83
2019-05-20T20:27:30.279Z,15.90
2019-05-20T20:29:58.110Z,13.57
2019-05-20T20:32:37.620Z,14.07
2019-05-20T20:34:53.680Z,13.97
2019-05-20T20:37:27.728Z,14.50
2019-05-20T20:39:54.672Z,13.03
2019-05-20T20:42:25.489Z,13.30
2019-05-20T20:44:51.845Z,12.73
2019-05-20T20:47:22.577Z,11.50
2019-05-20T20:49:50.218Z,12.10
2019-05-20T20:52:24.112Z,12.83
2019-05-20T20:54:50.876Z,13.13
2019-05-20T20:57:17.468Z,12.40
2019-05-20T20:59:43.859Z,13.87
2019-05-20T21:02:10.507Z,13.47
2019-05-20T21:04:38.179Z,14.53
2019-05-20T21:07:04.943Z,13.80
2019-05-20T21:09:32.020Z,13.30
2019-05-20T21:11:58.509Z,14.83
2019-05-20T21:14:26.390Z,16.13
2019-05-20T21:17:04.235Z,13.90
2019-05-20T21:19:38.352Z,16.00
2019-05-20T21:22:06.048Z,17.07
2019-05-20T21:24:32.648Z,14.97
2019-05-20T21:27:09.962Z,15.60
2019-05-20T21:29:36.398Z,15.07
2019-05-20T21:32:10.142Z,16.93
2019-05-20T21:34:45.521Z,14.60
2019-05-20T21:37:13.949Z,16.03
2019-05-20T21:39:42.529Z,16.37
2019-05-20T21:42:09.262Z,14.90
2019-05-20T21:44:37.880Z,16.53
2019-05-20T21:47:04.688Z,18.00
2019-05-20T21:49:31.130Z,18.47
2019-05-20T21:51:57.552Z,19.23
2019-05-20T21:54:24.216Z,16.80
2019-05-20T21:56:50.664Z,21.43
2019-05-20T21:59:17.519Z,21.33
2019-05-20T22:01:44.280Z,20.30
2019-05-20T22:04:10.745Z,22.40
2019-05-20T22:06:42.569Z,20.87
2019-05-20T22:09:09.560Z,23.30
2019-05-20T22:11:36.404Z,23.07
2019-05-20T22:14:03.306Z,23.40
2019-05-20T22:16:30.044Z,23.67
2019-05-20T22:18:57.047Z,23.97
2019-05-20T22:21:25.353Z,22.90
2019-05-20T22:23:54.937Z,23.70
2019-05-20T22:26:21.324Z,24.13
2019-05-20T22:28:47.765Z,24.80
2019-05-20T22:31:32.491Z,25.60
2019-05-20T22:33:58.871Z,24.73
2019-05-20T22:36:25.317Z,25.83
2019-05-20T22:39:00.134Z,26.00
2019-05-20T22:41:31.925Z,28.80
2019-05-20T22:43:58.296Z,28.10
2019-05-20T22:46:25.044Z,28.80
2019-05-20T22:48:51.329Z,27.27
2019-05-20T22:51:17.728Z,28.93
2019-05-20T22:53:46.020Z,28.07
2019-05-20T22:56:12.375Z,27.87
2019-05-20T22:58:38.797Z,27.23
2019-05-20T23:01:05.160Z,26.70
2019-05-20T23:03:37.656Z,25.37
2019-05-20T23:06:04.383Z,24.53
2019-05-20T23:08:30.729Z,24.57
2019-05-20T23:10:57.037Z,24.07
2019-05-20T23:13:24.453Z,24.53
2019-05-20T23:15:50.852Z,22.70
2019-05-20T23:18:20.728Z,23.60
2019-05-20T23:20:47.087Z,22.23
2019-05-20T23:23:13.483Z,21.67
2019-05-20T23:25:41.852Z,22.37
2019-05-20T23:28:10.381Z,20.93
2019-05-20T23:30:45.937Z,22.70
2019-05-20T23:33:12.343Z,20.43
2019-05-20T23:35:38.874Z,20.90
2019-05-20T23:38:05.232Z,20.00
2019-05-20T23:40:33.079Z,19.43
2019-05-20T23:42:59.476Z,19.77
2019-05-20T23:45:25.852Z,18.43
2019-05-20T23:47:52.356Z,19.57
2019-05-20T23:50:23.712Z,19.03
2019-05-20T23:52:49.983Z,20.57
2019-05-20T23:55:16.363Z,18.83
2019-05-20T23:57:42.743Z,17.80
